Time;durP1;ratioP1;P1;durP2;ratioP2;P2;SDS_P1;SDS_P2;PMS_P1;PMS_P2;Temp;Humidity;BMP_temperature;BMP_pressure;BME280_temperature;BME280_humidity;BME280_pressure;Samples;Min_cycle;Max_cycle;Signal;HPM_P1;HPM_P2
2021/11/24 09:44:08;;;;;;;5.87;4.00;;;;;;;5.23;84.23;99654.41;5106702;28;20572;-78
2021/11/24 09:46:36;;;;;;;4.07;3.10;;;;;;;5.76;82.59;99659.88;5088270;28;39052;-77
2021/11/24 09:49:05;;;;;;;3.53;3.07;;;;;;;6.28;79.29;99664.41;5105189;28;41852;-77
2021/11/24 09:51:34;;;;;;;2.87;1.93;;;;;;;6.71;77.10;99660.34;5122954;27;41729;-82
2021/11/24 09:54:04;;;;;;;3.63;2.00;;;;;;;7.02;73.89;99663.66;5122843;27;40915;-79
2021/11/24 09:56:32;;;;;;;1.67;1.50;;;;;;;7.29;72.35;99672.38;5121963;27;39990;-80
2021/11/24 09:58:59;;;;;;;1.77;1.43;;;;;;;7.50;70.29;99676.84;5102093;28;41684;-78
2021/11/24 10:01:28;;;;;;;1.33;1.00;;;;;;;7.67;69.47;99664.78;5105103;28;43703;-78
2021/11/24 10:03:56;;;;;;;1.60;1.50;;;;;;;7.82;68.63;99672.13;5106345;28;42106;-76
2021/11/24 10:06:24;;;;;;;1.57;1.10;;;;;;;7.93;66.93;99660.25;5105499;28;38903;-76
2021/11/24 10:08:52;;;;;;;1.40;1.30;;;;;;;8.03;66.68;99660.75;5104690;28;42398;-77
2021/11/24 10:11:19;;;;;;;1.90;1.50;;;;;;;8.10;66.72;99638.47;5105030;28;42875;-76
2021/11/24 10:13:48;;;;;;;1.77;1.53;;;;;;;8.30;66.35;99637.66;5105653;28;41111;-79
2021/11/24 10:16:24;;;;;;;1.57;1.17;;;;;;;8.50;66.10;99634.25;5087823;28;39165;-78
2021/11/24 10:19:01;;;;;;;1.40;1.30;;;;;;;8.60;64.02;99646.16;5089078;28;40728;-79
2021/11/24 10:21:30;;;;;;;2.17;1.97;;;;;;;8.67;63.79;99634.41;5122476;27;41585;-75
2021/11/24 10:24:01;;;;;;;1.63;1.53;;;;;;;8.82;63.52;99635.53;5104765;28;42280;-76
2021/11/24 10:26:32;;;;;;;2.10;1.60;;;;;;;9.02;62.38;99633.72;5106097;28;40945;-77
2021/11/24 10:29:03;;;;;;;2.53;1.77;;;;;;;9.25;61.53;99624.81;5068427;28;40850;-77
2021/11/24 10:31:33;;;;;;;1.53;1.43;;;;;;;9.52;60.23;99622.66;5117772;27;42614;-79
2021/11/24 10:34:12;;;;;;;2.00;1.33;;;;;;;9.83;59.85;99621.25;5085252;28;42188;-77
2021/11/24 10:36:50;;;;;;;1.30;1.20;;;;;;;13.05;54.70;99641.03;5083540;28;39451;-78
2021/11/24 10:39:18;;;;;;;1.23;1.13;;;;;;;15.73;49.44;99655.44;5085009;28;40650;-78
2021/11/24 10:41:45;;;;;;;1.23;1.10;;;;;;;16.92;42.67;99684.16;5083761;28;42061;-79
2021/11/24 10:44:25;;;;;;;1.17;1.07;;;;;;;19.07;39.18;99686.56;5085712;28;42280;-78
2021/11/24 10:46:54;;;;;;;0.80;0.80;;;;;;;20.26;35.49;99707.53;5093339;28;39583;-77
2021/11/24 10:49:31;;;;;;;1.10;1.00;;;;;;;20.26;34.70;99695.91;5104527;28;41123;-79
2021/11/24 10:51:58;;;;;;;1.20;1.10;;;;;;;18.42;37.07;99677.59;5103880;28;43254;-78
2021/11/24 10:54:26;;;;;;;1.03;0.90;;;;;;;17.13;39.97;99650.41;5096283;28;42200;-78
2021/11/24 10:57:04;;;;;;;2.60;1.30;;;;;;;15.98;40.54;99644.69;5092024;28;40608;-79
2021/11/24 10:59:34;;;;;;;2.07;1.10;;;;;;;15.03;41.83;99636.28;5091925;28;42638;-77
2021/11/24 11:02:27;;;;;;;1.43;1.07;;;;;;;14.45;43.16;99618.88;5090168;28;42355;-77
2021/11/24 11:05:18;;;;;;;1.20;1.10;;;;;;;14.23;44.35;99602.53;5070442;28;40721;-77
2021/11/24 11:07:58;;;;;;;1.13;1.07;;;;;;;13.90;44.95;99593.16;5070431;28;39834;-76
2021/11/24 11:10:27;;;;;;;1.07;0.97;;;;;;;13.66;45.92;99584.06;5078207;28;42658;-77
2021/11/24 11:12:57;;;;;;;1.37;0.97;;;;;;;13.47;45.64;99578.22;5090652;28;42706;-77
2021/11/24 11:15:31;;;;;;;1.27;1.17;;;;;;;13.63;45.17;99584.25;5089658;28;42922;-78
2021/11/24 11:18:14;;;;;;;0.90;0.90;;;;;;;13.43;45.40;99555.38;5091516;28;39889;-76
2021/11/24 11:20:47;;;;;;;1.10;1.00;;;;;;;13.62;44.69;99569.22;5090912;28;41958;-85
2021/11/24 11:23:21;;;;;;;1.10;1.00;;;;;;;13.58;44.61;99549.09;5074514;28;41931;-80
2021/11/24 11:25:50;;;;;;;0.90;0.90;;;;;;;13.36;45.26;99564.69;5074007;28;41338;-80
2021/11/24 11:28:19;;;;;;;1.30;1.07;;;;;;;13.19;45.19;99548.00;5074555;28;40331;-79
2021/11/24 11:30:49;;;;;;;0.90;0.83;;;;;;;13.51;45.08;99540.63;5069477;28;41685;-79
2021/11/24 11:33:21;;;;;;;1.20;1.00;;;;;;;13.72;43.74;99557.06;5070543;28;43639;-79
2021/11/24 11:35:50;;;;;;;0.90;0.90;;;;;;;14.20;44.18;99546.81;5065142;28;40939;-79
2021/11/24 11:38:22;;;;;;;1.63;0.73;;;;;;;16.12;41.98;99553.69;5090736;28;40199;-80
2021/11/24 11:40:52;;;;;;;1.10;0.97;;;;;;;16.09;39.53;99569.09;5072582;28;40523;-76
2021/11/24 11:43:22;;;;;;;0.80;0.80;;;;;;;19.26;36.40;99573.94;5089778;28;43101;-79
2021/11/24 11:45:51;;;;;;;0.83;0.83;;;;;;;20.60;34.35;99562.72;5090240;28;42284;-78
2021/11/24 11:48:28;;;;;;;0.83;0.83;;;;;;;20.63;32.83;99591.19;5091616;28;40826;-80
2021/11/24 11:50:59;;;;;;;0.70;0.70;;;;;;;19.26;34.00;99569.41;5089110;28;40741;-83
2021/11/24 11:53:29;;;;;;;0.80;0.80;;;;;;;18.31;34.50;99568.53;5091468;28;42828;-81
2021/11/24 11:56:19;;;;;;;0.80;0.80;;;;;;;18.27;34.71;99556.38;5091659;28;41874;-81
2021/11/24 11:59:02;;;;;;;0.90;0.90;;;;;;;19.89;33.03;99561.19;5091347;28;40034;-81
2021/11/24 12:01:32;;;;;;;0.90;0.90;;;;;;;18.81;33.92;99533.94;5124215;27;42081;-80
2021/11/24 12:04:08;;;;;;;1.03;1.03;;;;;;;18.97;33.26;99538.84;5074135;28;43661;-82
2021/11/24 12:06:41;;;;;;;1.00;1.00;;;;;;;18.13;34.70;99535.22;5072195;28;41319;-82
2021/11/24 12:09:28;;;;;;;1.10;1.00;;;;;;;20.66;32.60;99539.75;5090542;28;40269;-84
2021/11/24 12:12:22;;;;;;;1.00;0.90;;;;;;;21.90;31.05;99521.47;5089716;28;42020;-80
2021/11/24 12:15:00;;;;;;;1.07;0.97;;;;;;;21.64;29.81;99542.03;5089699;28;44060;-81
2021/11/24 12:17:47;;;;;;;0.87;0.83;;;;;;;20.88;30.12;99538.59;5090836;28;43448;-78
2021/11/24 12:20:43;;;;;;;1.00;0.90;;;;;;;20.15;31.59;99529.25;5072396;28;38667;-80
2021/11/24 12:23:20;;;;;;;1.03;0.93;;;;;;;19.87;31.75;99525.53;5072330;28;40298;-77
2021/11/24 12:25:48;;;;;;;1.47;1.20;;;;;;;19.51;32.69;99509.03;5072929;28;42993;-77
2021/11/24 12:28:20;;;;;;;0.80;0.80;;;;;;;19.13;33.24;99498.09;5090705;28;42287;-78
2021/11/24 12:31:03;;;;;;;1.10;1.03;;;;;;;20.45;32.27;99478.03;5089347;28;40174;-82
2021/11/24 12:33:34;;;;;;;0.90;0.90;;;;;;;22.83;29.42;99498.59;5088604;28;41856;-81
2021/11/24 12:36:04;;;;;;;3.53;0.90;;;;;;;24.54;27.14;99513.66;5091139;28;43479;-86
2021/11/24 12:38:43;;;;;;;0.80;0.80;;;;;;;25.21;26.36;99520.56;5072616;28;42259;-85
2021/11/24 12:41:16;;;;;;;0.80;0.70;;;;;;;24.20;26.65;99505.66;5068885;28;39067;-79
2021/11/24 12:43:45;;;;;;;0.83;0.83;;;;;;;23.22;27.86;99494.47;5069173;28;41495;-82
2021/11/24 12:46:16;;;;;;;0.90;0.90;;;;;;;21.52;29.00;99484.78;5066743;28;42988;-79
2021/11/24 12:48:48;;;;;;;0.60;0.60;;;;;;;20.13;30.96;99475.59;5089133;28;43033;-79
2021/11/24 12:51:25;;;;;;;2.13;1.20;;;;;;;18.94;32.23;99463.94;5088043;28;39865;-83
2021/11/24 12:54:00;;;;;;;1.17;1.10;;;;;;;17.84;33.90;99438.47;5123448;27;44204;-80
2021/11/24 12:56:30;;;;;;;1.40;1.30;;;;;;;17.55;34.67;99427.47;5124174;27;42525;-81
2021/11/24 12:59:01;;;;;;;1.37;1.27;;;;;;;16.85;35.61;99398.34;5089587;28;41247;-82
2021/11/24 13:01:31;;;;;;;0.90;0.90;;;;;;;17.07;35.18;99415.34;5088673;28;40053;-79
2021/11/24 13:04:02;;;;;;;1.07;1.00;;;;;;;16.64;36.37;99393.84;5091216;28;41587;-78
2021/11/24 13:06:31;;;;;;;1.60;0.83;;;;;;;16.07;36.51;99402.72;5089168;28;43694;-79
2021/11/24 13:09:13;;;;;;;1.10;1.00;;;;;;;15.63;37.93;99390.03;5090443;28;42733;-79
2021/11/24 13:11:52;;;;;;;1.30;1.20;;;;;;;15.18;38.58;99381.78;5089805;28;38730;-80
2021/11/24 13:14:24;;;;;;;1.80;0.90;;;;;;;14.77;39.43;99354.56;5106325;28;40954;-79
2021/11/24 13:17:17;;;;;;;0.90;0.90;;;;;;;14.66;39.95;99369.50;5088133;28;43862;-81
2021/11/24 13:19:56;;;;;;;0.93;0.90;;;;;;;14.47;40.16;99357.56;5073801;28;42280;-78
2021/11/24 13:22:34;;;;;;;0.93;0.93;;;;;;;14.15;40.38;99336.69;5071723;28;39080;-78
2021/11/24 13:25:11;;;;;;;1.60;1.50;;;;;;;13.83;41.02;99340.72;5088491;28;40633;-79
2021/11/24 13:27:46;;;;;;;0.93;0.93;;;;;;;13.45;41.46;99330.00;5088877;28;43493;-78
2021/11/24 13:30:16;;;;;;;1.10;0.97;;;;;;;13.10;42.28;99324.31;5088452;28;42561;-79
2021/11/24 13:32:57;;;;;;;0.70;0.70;;;;;;;12.73;43.18;99309.88;5106010;28;38963;-80
2021/11/24 13:35:26;;;;;;;0.97;0.97;;;;;;;12.51;43.74;99313.03;5088197;28;40873;-81
2021/11/24 13:37:55;;;;;;;0.90;0.80;;;;;;;12.29;44.40;99308.22;5089595;28;42684;-80
2021/11/24 13:40:48;;;;;;;0.93;0.90;;;;;;;12.08;44.74;99301.59;5087980;28;42034;-78
2021/11/24 13:43:30;;;;;;;0.97;0.97;;;;;;;11.95;45.31;99284.69;5087989;28;40873;-80
2021/11/24 13:45:58;;;;;;;0.93;0.90;;;;;;;11.91;45.79;99275.22;5088097;28;42220;-80
2021/11/24 13:48:34;;;;;;;1.10;1.00;;;;;;;11.84;46.04;99272.94;5088437;28;42053;-80
2021/11/24 13:51:03;;;;;;;0.80;0.80;;;;;;;11.66;46.64;99265.19;5105109;28;41341;-79
2021/11/24 13:53:35;;;;;;;0.73;0.73;;;;;;;11.48;46.89;99264.53;5088478;28;39155;-81
2021/11/24 13:56:20;;;;;;;0.83;0.83;;;;;;;11.30;46.84;99262.94;5121351;27;41670;-77
2021/11/24 13:59:07;;;;;;;0.83;0.83;;;;;;;11.16;47.37;99258.44;5088966;28;42877;-77
2021/11/24 14:01:37;;;;;;;0.93;0.80;;;;;;;11.00;48.32;99247.06;5072100;28;41619;-77
2021/11/24 14:04:07;;;;;;;0.90;0.90;;;;;;;10.86;48.07;99242.56;5087670;28;40390;-79
2021/11/24 14:06:41;;;;;;;0.90;0.80;;;;;;;10.75;48.31;99237.88;5071143;28;41873;-79
2021/11/24 14:09:30;;;;;;;1.20;1.10;;;;;;;10.59;49.50;99228.22;5083978;28;44666;-81
2021/11/24 14:12:06;;;;;;;0.70;0.70;;;;;;;10.23;49.46;99197.56;5065078;28;41320;-81
2021/11/24 14:14:44;;;;;;;0.70;0.70;;;;;;;10.31;50.38;99221.81;5086617;28;41190;-81
2021/11/24 14:17:13;;;;;;;1.10;0.80;;;;;;;10.27;50.70;99220.28;5087694;28;42000;-82
2021/11/24 14:19:42;;;;;;;1.97;0.90;;;;;;;10.26;50.82;99221.19;5071067;28;42023;-82
2021/11/24 14:22:10;;;;;;;1.00;0.80;;;;;;;10.24;51.08;99216.97;5070971;28;41127;-76
2021/11/24 14:24:38;;;;;;;0.90;0.90;;;;;;;10.18;51.88;99215.50;5087271;28;38946;-77
2021/11/24 14:27:07;;;;;;;1.20;1.10;;;;;;;10.02;51.44;99204.00;5069691;28;40979;-79
2021/11/24 14:29:39;;;;;;;0.63;0.63;;;;;;;10.02;51.74;99209.28;5123514;27;42661;-77
2021/11/24 14:32:07;;;;;;;0.80;0.80;;;;;;;9.91;52.27;99211.66;5073945;28;43008;-78
2021/11/24 14:34:35;;;;;;;1.30;0.90;;;;;;;9.80;52.40;99208.75;5090523;28;40110;-78
2021/11/24 14:37:03;;;;;;;2.07;1.40;;;;;;;9.66;52.71;99205.03;5091375;28;41447;-79
2021/11/24 14:39:31;;;;;;;1.87;1.20;;;;;;;9.53;52.82;99196.06;5091820;28;43143;-79
2021/11/24 14:42:00;;;;;;;1.40;0.93;;;;;;;9.37;53.06;99195.16;5091758;28;42027;-77
2021/11/24 14:44:29;;;;;;;1.70;1.20;;;;;;;9.24;54.00;99186.16;5090180;28;38895;-82
2021/11/24 14:46:56;;;;;;;2.33;1.20;;;;;;;9.09;54.10;99190.44;5091290;28;41633;-84
2021/11/24 14:49:25;;;;;;;1.10;1.00;;;;;;;8.97;54.67;99191.94;5073505;28;42003;-78
2021/11/24 14:51:52;;;;;;;1.80;1.07;;;;;;;8.88;54.28;99192.41;5073872;28;42887;-81
2021/11/24 14:54:20;;;;;;;1.40;1.20;;;;;;;8.81;54.66;99183.06;5123030;27;40912;-83
2021/11/24 14:56:48;;;;;;;1.27;1.17;;;;;;;8.69;54.74;99178.38;5092085;28;41759;-80
2021/11/24 14:59:15;;;;;;;5.27;1.50;;;;;;;8.54;55.79;99160.66;5090607;28;43228;-81
2021/11/24 15:01:46;;;;;;;1.00;0.90;;;;;;;8.44;55.97;99170.81;5074238;28;41214;-87
2021/11/24 15:04:15;;;;;;;1.80;1.23;;;;;;;8.29;55.83;99161.81;5073327;28;41364;-82
2021/11/24 15:06:43;;;;;;;1.97;1.57;;;;;;;8.08;56.23;99147.03;5053754;28;41144;-81
2021/11/24 15:09:11;;;;;;;2.33;1.90;;;;;;;7.96;57.43;99150.25;5071876;28;41657;-78
2021/11/24 15:11:38;;;;;;;2.70;1.60;;;;;;;7.81;57.75;99143.06;5074235;28;42522;-80
2021/11/24 15:14:06;;;;;;;2.73;1.40;;;;;;;7.68;57.78;99144.56;5090972;28;39740;-83
2021/11/24 15:16:34;;;;;;;1.57;1.47;;;;;;;7.58;58.23;99147.63;5092311;28;41636;-77
2021/11/24 15:19:04;;;;;;;2.63;1.43;;;;;;;7.47;58.37;99147.25;5089558;28;42640;-78
2021/11/24 15:21:31;;;;;;;3.33;1.57;;;;;;;7.36;58.23;99148.66;5106060;27;43792;-77
2021/11/24 15:23:59;;;;;;;1.30;1.20;;;;;;;7.23;58.58;99145.72;5078378;28;40645;-79
2021/11/24 15:26:28;;;;;;;2.53;1.57;;;;;;;7.10;59.38;99139.28;5089596;28;40988;-81
2021/11/24 15:28:55;;;;;;;1.53;1.30;;;;;;;6.98;60.13;99131.91;5073783;28;41911;-79
2021/11/24 15:31:24;;;;;;;1.80;1.70;;;;;;;6.77;60.25;99110.88;5073655;28;41109;-78
2021/11/24 15:33:52;;;;;;;3.33;1.70;;;;;;;6.76;60.47;99124.94;5070186;28;40422;-79
2021/11/24 15:36:24;;;;;;;1.87;1.47;;;;;;;6.56;60.70;99111.75;5070800;28;41440;-81
2021/11/24 15:38:53;;;;;;;2.80;1.70;;;;;;;6.46;60.56;99105.19;5090229;28;42689;-81
2021/11/24 15:41:22;;;;;;;2.17;1.57;;;;;;;6.36;60.09;99109.13;5090742;28;42294;-87
2021/11/24 15:43:50;;;;;;;1.67;1.27;;;;;;;6.27;60.16;99112.13;5069899;28;39232;-84
2021/11/24 15:46:19;;;;;;;1.83;1.13;;;;;;;6.19;60.52;99114.19;5085242;28;41718;-84
2021/11/24 15:48:51;;;;;;;0.90;0.90;;;;;;;6.19;60.47;99127.34;5090368;28;42769;-83
2021/11/24 15:51:20;;;;;;;1.43;1.10;;;;;;;5.99;60.16;99109.75;5091465;28;41943;-80
2021/11/24 15:53:49;;;;;;;2.73;1.10;;;;;;;6.00;60.86;99119.34;5090336;28;39972;-80
2021/11/24 15:56:21;;;;;;;1.17;1.00;;;;;;;5.92;60.64;99118.81;5123919;27;42298;-78
2021/11/24 15:58:50;;;;;;;1.70;1.30;;;;;;;5.83;61.32;99114.72;5091440;28;42801;-79
2021/11/24 16:01:17;;;;;;;1.10;0.90;;;;;;;5.74;61.66;99105.44;5089900;28;42304;-78
2021/11/24 16:03:45;;;;;;;1.47;1.30;;;;;;;5.68;61.61;99104.84;5069751;28;39506;-79
2021/11/24 16:06:13;;;;;;;1.20;1.10;;;;;;;5.53;62.58;99081.78;5072254;28;41009;-79
2021/11/24 16:08:41;;;;;;;4.40;1.90;;;;;;;5.52;62.49;99098.44;5072668;28;41636;-80
2021/11/24 16:11:12;;;;;;;3.40;1.40;;;;;;;5.45;62.95;99086.44;5084934;28;41928;-81
2021/11/24 16:13:41;;;;;;;1.83;1.50;;;;;;;5.36;63.52;99093.78;5123840;27;40740;-79
2021/11/24 16:16:09;;;;;;;2.27;1.40;;;;;;;5.18;63.59;99073.47;5088382;28;41486;-80
2021/11/24 16:18:38;;;;;;;1.60;1.50;;;;;;;5.23;64.19;99089.88;5072168;28;41656;-79
2021/11/24 16:21:06;;;;;;;2.30;1.50;;;;;;;5.13;63.75;99091.16;5088103;28;43252;-84
2021/11/24 16:23:37;;;;;;;1.57;1.30;;;;;;;4.99;63.76;99082.91;5090532;28;40112;-79
2021/11/24 16:26:04;;;;;;;1.93;1.83;;;;;;;5.04;63.68;99096.75;5072273;28;40812;-78
2021/11/24 16:28:33;;;;;;;3.13;2.10;;;;;;;4.98;63.51;99092.56;5071102;28;42941;-78
2021/11/24 16:31:01;;;;;;;3.37;1.90;;;;;;;4.76;64.19;99064.53;5089504;28;42133;-84
2021/11/24 16:33:29;;;;;;;2.60;2.07;;;;;;;4.83;64.82;99076.50;5072881;28;40366;-86
2021/11/24 16:35:57;;;;;;;4.17;2.50;;;;;;;4.64;65.04;99061.44;5088559;28;41399;-81
2021/11/24 16:38:25;;;;;;;3.93;1.47;;;;;;;4.73;65.15;99085.59;5088936;28;43185;-77
2021/11/24 16:40:53;;;;;;;2.20;1.90;;;;;;;4.66;65.28;99085.84;5088479;28;43068;-76
2021/11/24 16:43:21;;;;;;;2.43;2.03;;;;;;;4.60;65.15;99086.03;5070865;28;40197;-78
2021/11/24 16:45:53;;;;;;;3.03;2.23;;;;;;;4.49;65.26;99072.44;5071512;28;42105;-78
2021/11/24 16:48:22;;;;;;;3.23;2.30;;;;;;;4.44;65.64;99069.16;5089335;28;42779;-80
2021/11/24 16:50:51;;;;;;;3.30;2.27;;;;;;;4.43;65.70;99071.81;5087289;28;40793;-79
2021/11/24 16:53:19;;;;;;;2.17;1.97;;;;;;;4.38;65.48;99076.34;5071590;28;38761;-79
2021/11/24 16:55:49;;;;;;;2.57;2.27;;;;;;;4.35;66.52;99061.56;5088846;28;41006;-82
2021/11/24 16:58:17;;;;;;;3.20;2.10;;;;;;;4.32;67.20;99065.19;5089329;28;43506;-82
2021/11/24 17:00:45;;;;;;;3.73;2.17;;;;;;;4.21;68.18;99041.06;5071115;28;41488;-82
2021/11/24 17:03:14;;;;;;;3.50;2.53;;;;;;;4.31;68.14;99049.50;5071954;28;39838;-80
2021/11/24 17:05:44;;;;;;;4.57;2.20;;;;;;;4.26;67.37;99049.63;5071371;28;41893;-82
2021/11/24 17:08:12;;;;;;;4.23;2.50;;;;;;;4.30;67.25;99067.00;5088061;28;41486;-84
2021/11/24 17:10:39;;;;;;;5.40;2.30;;;;;;;4.30;67.72;99055.63;5088069;28;41116;-81
2021/11/24 17:13:09;;;;;;;4.80;2.47;;;;;;;4.32;67.43;99044.19;5071419;28;39629;-78
2021/11/24 17:15:36;;;;;;;3.13;2.10;;;;;;;4.53;67.48;99057.47;5087078;28;41399;-77
2021/11/24 17:18:05;;;;;;;2.83;2.10;;;;;;;4.59;66.99;99055.47;5104867;28;42140;-81
2021/11/24 17:20:36;;;;;;;4.17;3.03;;;;;;;4.66;66.86;99054.38;5071960;28;40902;-84
2021/11/24 17:23:06;;;;;;;3.27;2.30;;;;;;;4.66;66.79;99049.13;5072475;28;40128;-85
2021/11/24 17:25:35;;;;;;;3.13;1.80;;;;;;;4.79;66.72;99059.16;5071805;28;40679;-81
2021/11/24 17:28:03;;;;;;;2.63;2.23;;;;;;;4.82;66.58;99038.09;5072000;28;41961;-82
2021/11/24 17:30:32;;;;;;;2.97;1.70;;;;;;;4.77;66.41;99024.25;5088317;28;42343;-81
2021/11/24 17:33:00;;;;;;;6.53;3.20;;;;;;;4.83;66.58;99018.78;5085590;28;40270;-78
2021/11/24 17:35:28;;;;;;;2.83;2.17;;;;;;;4.81;66.70;99010.13;5087092;28;42115;-77
2021/11/24 17:37:57;;;;;;;3.47;2.43;;;;;;;4.91;67.47;99027.25;5070140;28;41859;-77
2021/11/24 17:40:26;;;;;;;5.60;2.67;;;;;;;4.90;67.17;99020.28;5089033;28;42007;-76
2021/11/24 17:42:54;;;;;;;4.13;1.73;;;;;;;4.81;67.35;99010.13;5087073;28;40177;-76
2021/11/24 17:45:26;;;;;;;3.53;2.13;;;;;;;4.92;66.85;99021.09;5087243;28;42403;-76
2021/11/24 17:47:54;;;;;;;2.63;2.37;;;;;;;4.96;66.88;99023.50;5086996;28;42911;-78
2021/11/24 17:50:22;;;;;;;2.80;2.20;;;;;;;4.87;67.07;99004.63;5070902;28;41111;-76
2021/11/24 17:52:49;;;;;;;3.17;1.73;;;;;;;4.92;66.63;99008.81;5090982;28;39267;-78
2021/11/24 17:55:18;;;;;;;2.27;1.60;;;;;;;5.01;67.04;99008.47;5074040;28;40635;-77
2021/11/24 17:57:46;;;;;;;2.13;1.93;;;;;;;5.01;67.29;99005.84;5073351;28;42584;-77
2021/11/24 18:00:16;;;;;;;1.87;1.40;;;;;;;4.92;67.04;98985.19;5075416;28;41285;-78
2021/11/24 18:02:44;;;;;;;2.13;1.37;;;;;;;5.02;67.07;98988.31;5092244;28;40827;-77
2021/11/24 18:05:12;;;;;;;1.50;1.40;;;;;;;5.05;67.68;98978.56;5076405;28;40838;-77
2021/11/24 18:07:39;;;;;;;4.00;2.10;;;;;;;5.05;67.12;98981.19;5073966;28;41989;-78
2021/11/24 18:10:08;;;;;;;2.17;1.73;;;;;;;5.09;67.14;98983.69;5090684;28;43143;-77
2021/11/24 18:12:37;;;;;;;1.77;1.67;;;;;;;5.10;66.61;98981.00;5074596;28;39040;-77
2021/11/24 18:15:06;;;;;;;2.97;1.70;;;;;;;5.11;66.35;98985.34;5091124;28;42000;-77
2021/11/24 18:17:34;;;;;;;3.40;2.20;;;;;;;5.11;66.84;98977.47;5082835;28;43808;-77
2021/11/24 18:20:03;;;;;;;1.63;1.40;;;;;;;5.02;67.17;98956.84;5072982;28;42414;-78
2021/11/24 18:22:31;;;;;;;1.63;1.50;;;;;;;5.11;66.91;98969.59;5090611;28;39007;-77
